sensor_id;sensor_type;location;lat;lon;timestamp;P1;durP1;ratioP1;P2;durP2;ratioP2
21198;SDS011;10757;51.038;3.712;2023-02-22T00:01:16;233.10;;;35.65;;
21198;SDS011;10757;51.038;3.712;2023-02-22T00:04:06;213.23;;;37.20;;
21198;SDS011;10757;51.038;3.712;2023-02-22T00:06:34;214.52;;;37.53;;
21198;SDS011;10757;51.038;3.712;2023-02-22T00:09:00;158.77;;;31.58;;
21198;SDS011;10757;51.038;3.712;2023-02-22T00:11:30;224.95;;;34.10;;
21198;SDS011;10757;51.038;3.712;2023-02-22T00:13:56;252.02;;;40.90;;
21198;SDS011;10757;51.038;3.712;2023-02-22T00:16:22;225.18;;;34.90;;
21198;SDS011;10757;51.038;3.712;2023-02-22T00:18:49;218.20;;;37.35;;
21198;SDS011;10757;51.038;3.712;2023-02-22T00:21:16;172.23;;;36.72;;
21198;SDS011;10757;51.038;3.712;2023-02-22T00:23:43;210.93;;;38.20;;
21198;SDS011;10757;51.038;3.712;2023-02-22T00:26:13;203.07;;;35.55;;
21198;SDS011;10757;51.038;3.712;2023-02-22T00:28:42;223.30;;;37.05;;
21198;SDS011;10757;51.038;3.712;2023-02-22T00:31:09;201.27;;;33.30;;
21198;SDS011;10757;51.038;3.712;2023-02-22T00:33:37;271.98;;;37.72;;
21198;SDS011;10757;51.038;3.712;2023-02-22T00:36:03;157.50;;;36.00;;
21198;SDS011;10757;51.038;3.712;2023-02-22T00:38:29;226.00;;;38.80;;
21198;SDS011;10757;51.038;3.712;2023-02-22T00:40:55;186.13;;;36.70;;
21198;SDS011;10757;51.038;3.712;2023-02-22T00:43:20;172.15;;;35.05;;
21198;SDS011;10757;51.038;3.712;2023-02-22T00:45:46;192.18;;;37.92;;
21198;SDS011;10757;51.038;3.712;2023-02-22T00:48:13;234.20;;;36.72;;
21198;SDS011;10757;51.038;3.712;2023-02-22T00:50:38;262.85;;;41.47;;
21198;SDS011;10757;51.038;3.712;2023-02-22T00:53:05;218.77;;;41.42;;
21198;SDS011;10757;51.038;3.712;2023-02-22T00:55:32;198.63;;;38.35;;
21198;SDS011;10757;51.038;3.712;2023-02-22T00:57:59;169.80;;;34.28;;
21198;SDS011;10757;51.038;3.712;2023-02-22T01:00:30;147.75;;;35.53;;
21198;SDS011;10757;51.038;3.712;2023-02-22T01:03:03;180.48;;;35.42;;
21198;SDS011;10757;51.038;3.712;2023-02-22T01:05:30;160.20;;;36.60;;
21198;SDS011;10757;51.038;3.712;2023-02-22T01:07:58;148.95;;;34.58;;
21198;SDS011;10757;51.038;3.712;2023-02-22T01:10:30;137.98;;;34.50;;
21198;SDS011;10757;51.038;3.712;2023-02-22T01:12:58;140.15;;;35.90;;
21198;SDS011;10757;51.038;3.712;2023-02-22T01:15:25;174.70;;;36.58;;
21198;SDS011;10757;51.038;3.712;2023-02-22T01:17:53;173.77;;;34.58;;
21198;SDS011;10757;51.038;3.712;2023-02-22T01:20:19;183.23;;;37.25;;
21198;SDS011;10757;51.038;3.712;2023-02-22T01:22:54;168.38;;;36.20;;
21198;SDS011;10757;51.038;3.712;2023-02-22T01:25:26;140.82;;;36.65;;
21198;SDS011;10757;51.038;3.712;2023-02-22T01:27:54;161.85;;;36.03;;
21198;SDS011;10757;51.038;3.712;2023-02-22T01:30:22;156.75;;;35.25;;
21198;SDS011;10757;51.038;3.712;2023-02-22T01:32:49;157.07;;;34.72;;
21198;SDS011;10757;51.038;3.712;2023-02-22T01:35:16;137.52;;;36.53;;
21198;SDS011;10757;51.038;3.712;2023-02-22T01:37:44;144.73;;;35.83;;
21198;SDS011;10757;51.038;3.712;2023-02-22T01:40:14;167.85;;;39.10;;
21198;SDS011;10757;51.038;3.712;2023-02-22T01:42:42;163.23;;;38.90;;
21198;SDS011;10757;51.038;3.712;2023-02-22T01:48:44;178.93;;;37.60;;
21198;SDS011;10757;51.038;3.712;2023-02-22T01:51:10;148.93;;;37.25;;
21198;SDS011;10757;51.038;3.712;2023-02-22T01:53:47;157.23;;;38.38;;
21198;SDS011;10757;51.038;3.712;2023-02-22T01:56:17;123.07;;;36.85;;
21198;SDS011;10757;51.038;3.712;2023-02-22T01:58:45;131.60;;;36.25;;
21198;SDS011;10757;51.038;3.712;2023-02-22T02:01:27;125.10;;;38.75;;
21198;SDS011;10757;51.038;3.712;2023-02-22T02:03:55;147.85;;;37.83;;
21198;SDS011;10757;51.038;3.712;2023-02-22T02:06:26;158.45;;;40.17;;
21198;SDS011;10757;51.038;3.712;2023-02-22T02:09:03;145.52;;;38.75;;
21198;SDS011;10757;51.038;3.712;2023-02-22T02:11:35;127.20;;;36.75;;
21198;SDS011;10757;51.038;3.712;2023-02-22T02:14:05;142.50;;;39.53;;
21198;SDS011;10757;51.038;3.712;2023-02-22T02:16:48;129.05;;;36.78;;
21198;SDS011;10757;51.038;3.712;2023-02-22T02:33:58;121.45;;;36.95;;
21198;SDS011;10757;51.038;3.712;2023-02-22T02:46:41;125.13;;;38.42;;
21198;SDS011;10757;51.038;3.712;2023-02-22T02:49:00;135.27;;;38.90;;
21198;SDS011;10757;51.038;3.712;2023-02-22T02:51:36;123.30;;;39.97;;
21198;SDS011;10757;51.038;3.712;2023-02-22T02:54:09;110.32;;;36.60;;
21198;SDS011;10757;51.038;3.712;2023-02-22T02:56:41;120.18;;;40.47;;
21198;SDS011;10757;51.038;3.712;2023-02-22T03:02:04;107.38;;;38.17;;
21198;SDS011;10757;51.038;3.712;2023-02-22T03:07:56;112.35;;;39.20;;
21198;SDS011;10757;51.038;3.712;2023-02-22T03:10:44;109.95;;;38.28;;
21198;SDS011;10757;51.038;3.712;2023-02-22T03:13:30;107.15;;;36.33;;
21198;SDS011;10757;51.038;3.712;2023-02-22T03:29:23;108.43;;;37.33;;
21198;SDS011;10757;51.038;3.712;2023-02-22T03:31:55;111.07;;;37.65;;
21198;SDS011;10757;51.038;3.712;2023-02-22T03:34:28;104.35;;;38.47;;
21198;SDS011;10757;51.038;3.712;2023-02-22T03:36:59;114.60;;;38.40;;
21198;SDS011;10757;51.038;3.712;2023-02-22T03:39:28;106.45;;;36.40;;
21198;SDS011;10757;51.038;3.712;2023-02-22T03:41:59;102.60;;;37.92;;
21198;SDS011;10757;51.038;3.712;2023-02-22T03:44:32;97.70;;;37.35;;
21198;SDS011;10757;51.038;3.712;2023-02-22T03:47:03;105.18;;;36.20;;
21198;SDS011;10757;51.038;3.712;2023-02-22T03:49:37;97.25;;;37.38;;
21198;SDS011;10757;51.038;3.712;2023-02-22T03:52:08;92.00;;;37.85;;
21198;SDS011;10757;51.038;3.712;2023-02-22T03:54:35;92.00;;;35.88;;
21198;SDS011;10757;51.038;3.712;2023-02-22T03:57:21;84.50;;;36.13;;
21198;SDS011;10757;51.038;3.712;2023-02-22T03:59:50;96.97;;;34.70;;
21198;SDS011;10757;51.038;3.712;2023-02-22T04:02:16;106.32;;;36.15;;
21198;SDS011;10757;51.038;3.712;2023-02-22T04:04:43;108.93;;;35.60;;
21198;SDS011;10757;51.038;3.712;2023-02-22T04:07:10;93.80;;;36.47;;
21198;SDS011;10757;51.038;3.712;2023-02-22T04:09:35;91.28;;;35.50;;
21198;SDS011;10757;51.038;3.712;2023-02-22T04:12:01;85.75;;;35.20;;
21198;SDS011;10757;51.038;3.712;2023-02-22T04:14:28;91.00;;;36.25;;
21198;SDS011;10757;51.038;3.712;2023-02-22T04:16:54;83.75;;;34.40;;
21198;SDS011;10757;51.038;3.712;2023-02-22T04:19:20;80.22;;;33.53;;
21198;SDS011;10757;51.038;3.712;2023-02-22T04:21:45;79.75;;;31.75;;
21198;SDS011;10757;51.038;3.712;2023-02-22T04:24:12;77.38;;;34.83;;
21198;SDS011;10757;51.038;3.712;2023-02-22T04:26:38;85.30;;;36.88;;
21198;SDS011;10757;51.038;3.712;2023-02-22T04:29:03;85.20;;;36.70;;
21198;SDS011;10757;51.038;3.712;2023-02-22T04:31:29;70.03;;;32.20;;
21198;SDS011;10757;51.038;3.712;2023-02-22T04:33:57;67.70;;;32.83;;
21198;SDS011;10757;51.038;3.712;2023-02-22T04:36:23;69.10;;;32.70;;
21198;SDS011;10757;51.038;3.712;2023-02-22T04:38:49;77.57;;;33.90;;
21198;SDS011;10757;51.038;3.712;2023-02-22T04:41:15;68.25;;;31.77;;
21198;SDS011;10757;51.038;3.712;2023-02-22T04:43:42;73.95;;;31.77;;
21198;SDS011;10757;51.038;3.712;2023-02-22T04:46:08;66.68;;;32.30;;
21198;SDS011;10757;51.038;3.712;2023-02-22T04:48:33;69.93;;;31.67;;
21198;SDS011;10757;51.038;3.712;2023-02-22T04:50:59;73.00;;;33.72;;
21198;SDS011;10757;51.038;3.712;2023-02-22T04:53:25;64.40;;;29.65;;
21198;SDS011;10757;51.038;3.712;2023-02-22T04:55:50;65.60;;;32.70;;
21198;SDS011;10757;51.038;3.712;2023-02-22T04:58:16;68.78;;;31.50;;
21198;SDS011;10757;51.038;3.712;2023-02-22T05:00:42;71.15;;;31.83;;
21198;SDS011;10757;51.038;3.712;2023-02-22T05:03:07;67.35;;;32.33;;
21198;SDS011;10757;51.038;3.712;2023-02-22T05:05:33;66.55;;;31.85;;
21198;SDS011;10757;51.038;3.712;2023-02-22T05:07:59;65.00;;;31.65;;
21198;SDS011;10757;51.038;3.712;2023-02-22T05:10:25;64.45;;;31.15;;
21198;SDS011;10757;51.038;3.712;2023-02-22T05:12:50;60.35;;;28.98;;
21198;SDS011;10757;51.038;3.712;2023-02-22T05:15:17;58.58;;;28.33;;
21198;SDS011;10757;51.038;3.712;2023-02-22T05:17:44;59.47;;;27.58;;
21198;SDS011;10757;51.038;3.712;2023-02-22T05:20:43;56.80;;;28.40;;
21198;SDS011;10757;51.038;3.712;2023-02-22T05:23:02;61.65;;;30.85;;
21198;SDS011;10757;51.038;3.712;2023-02-22T05:25:29;69.68;;;32.55;;
21198;SDS011;10757;51.038;3.712;2023-02-22T05:27:58;69.43;;;31.52;;
21198;SDS011;10757;51.038;3.712;2023-02-22T05:30:32;58.25;;;30.67;;
21198;SDS011;10757;51.038;3.712;2023-02-22T05:32:59;59.80;;;29.25;;
21198;SDS011;10757;51.038;3.712;2023-02-22T05:35:25;55.78;;;28.75;;
21198;SDS011;10757;51.038;3.712;2023-02-22T05:37:51;59.63;;;31.00;;
21198;SDS011;10757;51.038;3.712;2023-02-22T05:40:18;61.88;;;31.40;;
21198;SDS011;10757;51.038;3.712;2023-02-22T05:42:45;56.88;;;27.45;;
21198;SDS011;10757;51.038;3.712;2023-02-22T05:45:11;70.03;;;31.88;;
21198;SDS011;10757;51.038;3.712;2023-02-22T05:47:38;59.53;;;30.45;;
21198;SDS011;10757;51.038;3.712;2023-02-22T05:50:04;56.00;;;29.55;;
21198;SDS011;10757;51.038;3.712;2023-02-22T05:52:30;54.22;;;30.48;;
21198;SDS011;10757;51.038;3.712;2023-02-22T05:54:55;57.15;;;30.05;;
21198;SDS011;10757;51.038;3.712;2023-02-22T05:57:21;56.20;;;28.73;;
21198;SDS011;10757;51.038;3.712;2023-02-22T05:59:47;51.95;;;26.00;;
21198;SDS011;10757;51.038;3.712;2023-02-22T06:02:12;58.30;;;29.08;;
21198;SDS011;10757;51.038;3.712;2023-02-22T06:04:38;52.35;;;29.55;;
21198;SDS011;10757;51.038;3.712;2023-02-22T06:07:04;49.85;;;27.83;;
21198;SDS011;10757;51.038;3.712;2023-02-22T06:09:30;53.15;;;28.25;;
21198;SDS011;10757;51.038;3.712;2023-02-22T06:11:56;52.20;;;28.83;;
21198;SDS011;10757;51.038;3.712;2023-02-22T06:14:22;49.08;;;27.48;;
21198;SDS011;10757;51.038;3.712;2023-02-22T06:16:54;48.92;;;27.10;;
21198;SDS011;10757;51.038;3.712;2023-02-22T06:19:21;50.80;;;26.40;;
21198;SDS011;10757;51.038;3.712;2023-02-22T06:21:51;45.22;;;25.70;;
21198;SDS011;10757;51.038;3.712;2023-02-22T06:24:18;55.72;;;28.08;;
21198;SDS011;10757;51.038;3.712;2023-02-22T06:26:44;50.47;;;26.02;;
21198;SDS011;10757;51.038;3.712;2023-02-22T06:29:10;50.05;;;26.33;;
21198;SDS011;10757;51.038;3.712;2023-02-22T06:31:36;53.40;;;28.10;;
21198;SDS011;10757;51.038;3.712;2023-02-22T06:34:01;47.92;;;28.65;;
21198;SDS011;10757;51.038;3.712;2023-02-22T06:36:28;48.90;;;27.00;;
21198;SDS011;10757;51.038;3.712;2023-02-22T06:38:56;47.40;;;26.75;;
21198;SDS011;10757;51.038;3.712;2023-02-22T06:41:22;47.65;;;26.60;;
21198;SDS011;10757;51.038;3.712;2023-02-22T06:43:48;50.78;;;26.75;;
21198;SDS011;10757;51.038;3.712;2023-02-22T06:46:14;46.55;;;26.00;;
21198;SDS011;10757;51.038;3.712;2023-02-22T06:48:39;42.58;;;25.83;;
21198;SDS011;10757;51.038;3.712;2023-02-22T06:51:08;46.47;;;26.02;;
21198;SDS011;10757;51.038;3.712;2023-02-22T06:53:34;45.47;;;25.67;;
21198;SDS011;10757;51.038;3.712;2023-02-22T06:56:00;43.42;;;23.23;;
21198;SDS011;10757;51.038;3.712;2023-02-22T06:58:27;47.17;;;26.77;;
21198;SDS011;10757;51.038;3.712;2023-02-22T07:00:53;46.38;;;26.83;;
21198;SDS011;10757;51.038;3.712;2023-02-22T07:03:18;47.65;;;25.27;;
21198;SDS011;10757;51.038;3.712;2023-02-22T07:05:44;43.40;;;24.60;;
21198;SDS011;10757;51.038;3.712;2023-02-22T07:08:10;46.08;;;25.05;;
21198;SDS011;10757;51.038;3.712;2023-02-22T07:10:37;42.72;;;25.00;;
21198;SDS011;10757;51.038;3.712;2023-02-22T07:13:04;65.22;;;27.45;;
21198;SDS011;10757;51.038;3.712;2023-02-22T07:15:32;39.58;;;23.13;;
21198;SDS011;10757;51.038;3.712;2023-02-22T07:17:59;41.60;;;23.15;;
21198;SDS011;10757;51.038;3.712;2023-02-22T07:20:26;39.47;;;23.65;;
21198;SDS011;10757;51.038;3.712;2023-02-22T07:22:52;49.58;;;25.08;;
21198;SDS011;10757;51.038;3.712;2023-02-22T07:25:18;41.22;;;23.20;;
21198;SDS011;10757;51.038;3.712;2023-02-22T07:27:44;40.70;;;23.90;;
21198;SDS011;10757;51.038;3.712;2023-02-22T07:30:21;42.80;;;23.38;;
21198;SDS011;10757;51.038;3.712;2023-02-22T07:32:54;41.78;;;24.58;;
21198;SDS011;10757;51.038;3.712;2023-02-22T07:35:22;41.70;;;24.20;;
21198;SDS011;10757;51.038;3.712;2023-02-22T07:37:50;39.22;;;23.10;;
21198;SDS011;10757;51.038;3.712;2023-02-22T07:40:17;37.00;;;22.83;;
21198;SDS011;10757;51.038;3.712;2023-02-22T07:45:19;41.35;;;22.02;;
21198;SDS011;10757;51.038;3.712;2023-02-22T07:47:45;38.53;;;21.80;;
21198;SDS011;10757;51.038;3.712;2023-02-22T07:50:12;41.17;;;23.77;;
21198;SDS011;10757;51.038;3.712;2023-02-22T07:52:38;42.45;;;27.27;;
21198;SDS011;10757;51.038;3.712;2023-02-22T07:55:04;43.05;;;23.67;;
21198;SDS011;10757;51.038;3.712;2023-02-22T07:57:33;41.63;;;22.77;;
21198;SDS011;10757;51.038;3.712;2023-02-22T07:59:58;38.83;;;21.23;;
21198;SDS011;10757;51.038;3.712;2023-02-22T08:02:30;39.95;;;22.98;;
21198;SDS011;10757;51.038;3.712;2023-02-22T08:04:56;41.58;;;23.75;;
21198;SDS011;10757;51.038;3.712;2023-02-22T08:07:21;37.38;;;22.05;;
21198;SDS011;10757;51.038;3.712;2023-02-22T08:09:48;43.42;;;23.17;;
21198;SDS011;10757;51.038;3.712;2023-02-22T08:12:14;36.88;;;22.02;;
21198;SDS011;10757;51.038;3.712;2023-02-22T08:14:40;41.55;;;22.35;;
21198;SDS011;10757;51.038;3.712;2023-02-22T08:17:06;40.28;;;22.95;;
21198;SDS011;10757;51.038;3.712;2023-02-22T08:19:32;41.28;;;22.48;;
21198;SDS011;10757;51.038;3.712;2023-02-22T08:21:57;39.00;;;22.27;;
21198;SDS011;10757;51.038;3.712;2023-02-22T08:24:25;113.10;;;76.03;;
21198;SDS011;10757;51.038;3.712;2023-02-22T08:26:50;41.28;;;21.20;;
21198;SDS011;10757;51.038;3.712;2023-02-22T08:29:16;36.47;;;21.85;;
21198;SDS011;10757;51.038;3.712;2023-02-22T08:31:50;42.78;;;21.77;;
21198;SDS011;10757;51.038;3.712;2023-02-22T08:34:21;33.80;;;21.33;;
21198;SDS011;10757;51.038;3.712;2023-02-22T08:36:50;35.47;;;20.85;;
21198;SDS011;10757;51.038;3.712;2023-02-22T08:39:22;37.70;;;20.48;;
21198;SDS011;10757;51.038;3.712;2023-02-22T08:41:49;32.58;;;20.35;;
21198;SDS011;10757;51.038;3.712;2023-02-22T08:44:15;39.90;;;21.05;;
21198;SDS011;10757;51.038;3.712;2023-02-22T08:46:42;37.28;;;21.70;;
21198;SDS011;10757;51.038;3.712;2023-02-22T08:49:08;40.10;;;20.30;;
21198;SDS011;10757;51.038;3.712;2023-02-22T08:51:35;36.90;;;18.92;;
21198;SDS011;10757;51.038;3.712;2023-02-22T08:54:11;33.42;;;18.52;;
21198;SDS011;10757;51.038;3.712;2023-02-22T08:56:37;32.28;;;17.45;;
21198;SDS011;10757;51.038;3.712;2023-02-22T08:59:03;26.65;;;16.88;;
21198;SDS011;10757;51.038;3.712;2023-02-22T09:01:29;28.00;;;17.20;;
21198;SDS011;10757;51.038;3.712;2023-02-22T09:03:54;30.40;;;17.95;;
21198;SDS011;10757;51.038;3.712;2023-02-22T09:06:21;45.03;;;18.42;;
21198;SDS011;10757;51.038;3.712;2023-02-22T09:08:47;30.40;;;16.63;;
21198;SDS011;10757;51.038;3.712;2023-02-22T09:11:14;33.05;;;16.85;;
21198;SDS011;10757;51.038;3.712;2023-02-22T09:13:40;30.45;;;17.35;;
21198;SDS011;10757;51.038;3.712;2023-02-22T09:16:10;27.90;;;16.50;;
21198;SDS011;10757;51.038;3.712;2023-02-22T09:18:36;27.02;;;15.52;;
21198;SDS011;10757;51.038;3.712;2023-02-22T09:21:03;25.75;;;15.80;;
21198;SDS011;10757;51.038;3.712;2023-02-22T09:23:29;26.77;;;16.33;;
21198;SDS011;10757;51.038;3.712;2023-02-22T09:25:55;35.53;;;16.75;;
21198;SDS011;10757;51.038;3.712;2023-02-22T09:28:25;30.48;;;16.50;;
21198;SDS011;10757;51.038;3.712;2023-02-22T09:30:51;29.70;;;16.65;;
21198;SDS011;10757;51.038;3.712;2023-02-22T09:33:18;34.95;;;16.40;;
21198;SDS011;10757;51.038;3.712;2023-02-22T09:35:45;29.23;;;17.00;;
21198;SDS011;10757;51.038;3.712;2023-02-22T09:38:16;26.10;;;16.92;;
21198;SDS011;10757;51.038;3.712;2023-02-22T09:41:27;30.52;;;17.98;;
21198;SDS011;10757;51.038;3.712;2023-02-22T09:49:06;37.15;;;17.60;;
21198;SDS011;10757;51.038;3.712;2023-02-22T09:51:44;27.27;;;17.15;;
21198;SDS011;10757;51.038;3.712;2023-02-22T09:54:38;28.88;;;17.60;;
21198;SDS011;10757;51.038;3.712;2023-02-22T09:57:10;42.20;;;20.35;;
21198;SDS011;10757;51.038;3.712;2023-02-22T09:59:52;24.23;;;16.45;;
21198;SDS011;10757;51.038;3.712;2023-02-22T10:02:34;31.50;;;18.45;;
21198;SDS011;10757;51.038;3.712;2023-02-22T10:05:05;33.63;;;19.05;;
21198;SDS011;10757;51.038;3.712;2023-02-22T10:10:21;36.10;;;19.15;;
21198;SDS011;10757;51.038;3.712;2023-02-22T10:23:31;41.03;;;22.83;;
21198;SDS011;10757;51.038;3.712;2023-02-22T10:26:19;35.90;;;21.63;;
21198;SDS011;10757;51.038;3.712;2023-02-22T10:31:30;37.58;;;21.85;;
21198;SDS011;10757;51.038;3.712;2023-02-22T10:34:02;32.53;;;21.13;;
21198;SDS011;10757;51.038;3.712;2023-02-22T10:36:35;34.90;;;21.55;;
21198;SDS011;10757;51.038;3.712;2023-02-22T10:42:03;33.47;;;21.73;;
21198;SDS011;10757;51.038;3.712;2023-02-22T10:44:32;35.67;;;23.73;;
21198;SDS011;10757;51.038;3.712;2023-02-22T10:46:59;33.22;;;20.83;;
21198;SDS011;10757;51.038;3.712;2023-02-22T10:49:29;35.75;;;22.75;;
21198;SDS011;10757;51.038;3.712;2023-02-22T10:52:10;33.17;;;22.58;;
21198;SDS011;10757;51.038;3.712;2023-02-22T10:54:41;45.67;;;25.73;;
21198;SDS011;10757;51.038;3.712;2023-02-22T10:57:10;33.00;;;22.98;;
21198;SDS011;10757;51.038;3.712;2023-02-22T10:59:38;38.28;;;24.83;;
21198;SDS011;10757;51.038;3.712;2023-02-22T11:04:59;40.25;;;26.35;;
21198;SDS011;10757;51.038;3.712;2023-02-22T11:07:29;44.20;;;26.73;;
21198;SDS011;10757;51.038;3.712;2023-02-22T11:10:01;39.10;;;26.75;;
21198;SDS011;10757;51.038;3.712;2023-02-22T11:12:33;40.15;;;26.83;;
21198;SDS011;10757;51.038;3.712;2023-02-22T11:17:54;37.67;;;26.10;;
21198;SDS011;10757;51.038;3.712;2023-02-22T11:22:57;39.63;;;27.02;;
21198;SDS011;10757;51.038;3.712;2023-02-22T11:25:27;35.90;;;26.42;;
21198;SDS011;10757;51.038;3.712;2023-02-22T11:28:06;40.00;;;27.15;;
21198;SDS011;10757;51.038;3.712;2023-02-22T11:30:42;45.00;;;27.65;;
21198;SDS011;10757;51.038;3.712;2023-02-22T11:33:20;38.70;;;26.80;;
21198;SDS011;10757;51.038;3.712;2023-02-22T11:38:18;37.67;;;27.80;;
21198;SDS011;10757;51.038;3.712;2023-02-22T11:43:41;49.05;;;29.63;;
21198;SDS011;10757;51.038;3.712;2023-02-22T11:51:40;42.63;;;28.27;;
21198;SDS011;10757;51.038;3.712;2023-02-22T11:54:37;48.10;;;31.30;;
21198;SDS011;10757;51.038;3.712;2023-02-22T12:13:57;41.78;;;31.67;;
21198;SDS011;10757;51.038;3.712;2023-02-22T12:16:44;46.10;;;33.53;;
21198;SDS011;10757;51.038;3.712;2023-02-22T12:19:20;50.85;;;35.00;;
21198;SDS011;10757;51.038;3.712;2023-02-22T12:21:52;51.63;;;35.70;;
21198;SDS011;10757;51.038;3.712;2023-02-22T12:24:42;58.38;;;40.53;;
21198;SDS011;10757;51.038;3.712;2023-02-22T12:27:18;52.17;;;36.17;;
21198;SDS011;10757;51.038;3.712;2023-02-22T12:30:04;53.10;;;36.30;;
21198;SDS011;10757;51.038;3.712;2023-02-22T12:32:41;56.65;;;37.15;;
21198;SDS011;10757;51.038;3.712;2023-02-22T12:35:19;53.05;;;37.13;;
21198;SDS011;10757;51.038;3.712;2023-02-22T12:37:59;55.58;;;36.63;;
21198;SDS011;10757;51.038;3.712;2023-02-22T12:40:36;55.58;;;37.75;;
21198;SDS011;10757;51.038;3.712;2023-02-22T12:52:13;56.90;;;37.22;;
21198;SDS011;10757;51.038;3.712;2023-02-22T12:57:41;63.03;;;40.90;;
21198;SDS011;10757;51.038;3.712;2023-02-22T13:06:08;61.20;;;39.63;;
21198;SDS011;10757;51.038;3.712;2023-02-22T13:09:03;66.95;;;41.42;;
21198;SDS011;10757;51.038;3.712;2023-02-22T13:19:55;73.35;;;43.78;;
21198;SDS011;10757;51.038;3.712;2023-02-22T13:22:34;81.28;;;46.67;;
21198;SDS011;10757;51.038;3.712;2023-02-22T13:25:27;72.00;;;43.40;;
21198;SDS011;10757;51.038;3.712;2023-02-22T13:28:06;79.72;;;42.90;;
21198;SDS011;10757;51.038;3.712;2023-02-22T13:30:40;74.18;;;43.47;;
21198;SDS011;10757;51.038;3.712;2023-02-22T13:41:42;79.95;;;43.05;;
21198;SDS011;10757;51.038;3.712;2023-02-22T13:52:43;78.88;;;42.33;;
21198;SDS011;10757;51.038;3.712;2023-02-22T13:55:31;77.07;;;43.10;;
21198;SDS011;10757;51.038;3.712;2023-02-22T13:58:05;77.03;;;42.53;;
21198;SDS011;10757;51.038;3.712;2023-02-22T14:00:41;77.60;;;42.35;;
21198;SDS011;10757;51.038;3.712;2023-02-22T14:10:50;84.10;;;45.70;;
21198;SDS011;10757;51.038;3.712;2023-02-22T14:13:29;83.25;;;46.47;;
21198;SDS011;10757;51.038;3.712;2023-02-22T14:21:07;86.97;;;46.72;;
21198;SDS011;10757;51.038;3.712;2023-02-22T14:26:16;87.13;;;46.05;;
21198;SDS011;10757;51.038;3.712;2023-02-22T14:29:01;90.68;;;48.17;;
21198;SDS011;10757;51.038;3.712;2023-02-22T14:39:45;112.85;;;63.35;;
21198;SDS011;10757;51.038;3.712;2023-02-22T14:47:43;103.20;;;50.78;;
21198;SDS011;10757;51.038;3.712;2023-02-22T14:53:15;99.88;;;49.95;;
21198;SDS011;10757;51.038;3.712;2023-02-22T14:55:59;109.07;;;55.38;;
21198;SDS011;10757;51.038;3.712;2023-02-22T15:04:48;94.20;;;49.58;;
21198;SDS011;10757;51.038;3.712;2023-02-22T15:06:56;105.15;;;48.90;;
21198;SDS011;10757;51.038;3.712;2023-02-22T15:09:31;91.35;;;48.90;;
21198;SDS011;10757;51.038;3.712;2023-02-22T15:14:27;87.47;;;48.03;;
21198;SDS011;10757;51.038;3.712;2023-02-22T15:16:56;97.25;;;49.15;;
21198;SDS011;10757;51.038;3.712;2023-02-22T15:19:30;95.88;;;49.78;;
21198;SDS011;10757;51.038;3.712;2023-02-22T15:22:00;85.90;;;47.85;;
21198;SDS011;10757;51.038;3.712;2023-02-22T15:24:28;88.75;;;46.70;;
21198;SDS011;10757;51.038;3.712;2023-02-22T15:29:43;82.22;;;46.45;;
21198;SDS011;10757;51.038;3.712;2023-02-22T15:35:04;92.43;;;48.03;;
21198;SDS011;10757;51.038;3.712;2023-02-22T15:37:59;82.65;;;46.60;;
21198;SDS011;10757;51.038;3.712;2023-02-22T15:40:31;92.57;;;48.47;;
21198;SDS011;10757;51.038;3.712;2023-02-22T15:45:58;86.72;;;46.80;;
21198;SDS011;10757;51.038;3.712;2023-02-22T15:48:28;83.70;;;44.80;;
21198;SDS011;10757;51.038;3.712;2023-02-22T15:53:28;84.60;;;45.88;;
21198;SDS011;10757;51.038;3.712;2023-02-22T15:56:01;82.47;;;44.90;;
21198;SDS011;10757;51.038;3.712;2023-02-22T15:58:31;87.88;;;45.28;;
21198;SDS011;10757;51.038;3.712;2023-02-22T16:00:59;88.43;;;43.85;;
21198;SDS011;10757;51.038;3.712;2023-02-22T16:03:39;145.57;;;77.90;;
21198;SDS011;10757;51.038;3.712;2023-02-22T16:09:19;78.47;;;43.08;;
21198;SDS011;10757;51.038;3.712;2023-02-22T16:12:08;73.50;;;38.63;;
21198;SDS011;10757;51.038;3.712;2023-02-22T16:14:50;72.00;;;39.42;;
21198;SDS011;10757;51.038;3.712;2023-02-22T16:22:48;70.68;;;38.92;;
21198;SDS011;10757;51.038;3.712;2023-02-22T16:27:45;63.63;;;34.15;;
21198;SDS011;10757;51.038;3.712;2023-02-22T16:30:21;63.08;;;35.63;;
21198;SDS011;10757;51.038;3.712;2023-02-22T16:32:50;72.95;;;35.88;;
21198;SDS011;10757;51.038;3.712;2023-02-22T16:35:17;66.30;;;36.13;;
21198;SDS011;10757;51.038;3.712;2023-02-22T16:37:46;67.97;;;35.85;;
21198;SDS011;10757;51.038;3.712;2023-02-22T16:40:18;67.88;;;35.00;;
21198;SDS011;10757;51.038;3.712;2023-02-22T16:42:48;64.03;;;35.03;;
21198;SDS011;10757;51.038;3.712;2023-02-22T16:45:15;64.30;;;34.20;;
21198;SDS011;10757;51.038;3.712;2023-02-22T16:47:42;57.88;;;33.10;;
21198;SDS011;10757;51.038;3.712;2023-02-22T16:50:09;57.95;;;32.13;;
21198;SDS011;10757;51.038;3.712;2023-02-22T16:52:37;60.70;;;32.15;;
21198;SDS011;10757;51.038;3.712;2023-02-22T16:55:04;57.15;;;33.45;;
21198;SDS011;10757;51.038;3.712;2023-02-22T16:57:33;60.35;;;31.30;;
21198;SDS011;10757;51.038;3.712;2023-02-22T16:59:59;54.20;;;31.15;;
21198;SDS011;10757;51.038;3.712;2023-02-22T17:02:25;57.60;;;32.03;;
21198;SDS011;10757;51.038;3.712;2023-02-22T17:04:51;59.25;;;32.53;;
21198;SDS011;10757;51.038;3.712;2023-02-22T17:07:18;56.08;;;30.48;;
21198;SDS011;10757;51.038;3.712;2023-02-22T17:09:47;53.92;;;29.60;;
21198;SDS011;10757;51.038;3.712;2023-02-22T17:12:16;56.15;;;32.25;;
21198;SDS011;10757;51.038;3.712;2023-02-22T17:14:43;58.15;;;31.58;;
21198;SDS011;10757;51.038;3.712;2023-02-22T17:17:11;62.75;;;32.70;;
21198;SDS011;10757;51.038;3.712;2023-02-22T17:19:37;59.40;;;31.85;;
21198;SDS011;10757;51.038;3.712;2023-02-22T17:22:03;55.10;;;30.77;;
21198;SDS011;10757;51.038;3.712;2023-02-22T17:24:30;59.60;;;32.22;;
21198;SDS011;10757;51.038;3.712;2023-02-22T17:26:58;62.28;;;32.60;;
21198;SDS011;10757;51.038;3.712;2023-02-22T17:29:24;59.60;;;33.40;;
21198;SDS011;10757;51.038;3.712;2023-02-22T17:31:52;59.38;;;33.65;;
21198;SDS011;10757;51.038;3.712;2023-02-22T17:34:18;61.45;;;33.38;;
21198;SDS011;10757;51.038;3.712;2023-02-22T17:36:44;62.17;;;34.00;;
21198;SDS011;10757;51.038;3.712;2023-02-22T17:39:10;63.05;;;32.47;;
21198;SDS011;10757;51.038;3.712;2023-02-22T17:41:36;59.90;;;33.40;;
21198;SDS011;10757;51.038;3.712;2023-02-22T17:44:02;62.47;;;32.88;;
21198;SDS011;10757;51.038;3.712;2023-02-22T17:46:29;59.35;;;33.63;;
21198;SDS011;10757;51.038;3.712;2023-02-22T17:48:55;62.30;;;33.58;;
21198;SDS011;10757;51.038;3.712;2023-02-22T17:51:21;63.40;;;34.15;;
21198;SDS011;10757;51.038;3.712;2023-02-22T17:53:50;62.00;;;35.33;;
21198;SDS011;10757;51.038;3.712;2023-02-22T17:56:18;60.05;;;33.97;;
21198;SDS011;10757;51.038;3.712;2023-02-22T17:58:45;56.15;;;33.13;;
21198;SDS011;10757;51.038;3.712;2023-02-22T18:01:19;63.47;;;34.50;;
21198;SDS011;10757;51.038;3.712;2023-02-22T18:03:45;62.83;;;35.53;;
21198;SDS011;10757;51.038;3.712;2023-02-22T18:06:14;60.00;;;32.30;;
21198;SDS011;10757;51.038;3.712;2023-02-22T18:08:45;63.47;;;34.97;;
21198;SDS011;10757;51.038;3.712;2023-02-22T18:11:12;58.20;;;32.92;;